Time;durP1;ratioP1;P1;durP2;ratioP2;P2;SDS_P1;SDS_P2;PMS_P1;PMS_P2;Temp;Humidity;BMP_temperature;BMP_pressure;BME280_temperature;BME280_humidity;BME280_pressure;Samples;Min_cycle;Max_cycle;Signal;HPM_P1;HPM_P2
2022/08/24 00:00:51;;;;;;;3.17;2.47;;;25.00;64.10;;;;;;4461959;32;20527;-71
2022/08/24 00:03:17;;;;;;;3.17;2.20;;;25.00;64.00;;;;;;4461989;32;20160;-71
2022/08/24 00:05:43;;;;;;;3.55;2.40;;;25.00;65.00;;;;;;4462182;32;20220;-71
2022/08/24 00:08:09;;;;;;;3.45;2.50;;;25.00;64.00;;;;;;4461490;32;20215;-70
2022/08/24 00:10:35;;;;;;;3.03;2.20;;;25.00;64.00;;;;;;4447757;32;20408;-71
2022/08/24 00:13:01;;;;;;;3.55;2.42;;;25.00;64.10;;;;;;4461403;32;20074;-71
2022/08/24 00:15:27;;;;;;;2.60;2.33;;;25.00;64.10;;;;;;4461647;32;20066;-71
2022/08/24 00:17:53;;;;;;;3.15;2.35;;;25.00;64.10;;;;;;4461332;32;20131;-71
2022/08/24 00:20:19;;;;;;;3.40;2.40;;;25.00;64.00;;;;;;4461297;32;20499;-70
2022/08/24 00:22:45;;;;;;;3.75;2.60;;;25.00;64.00;;;;;;4461235;32;20093;-71
2022/08/24 00:25:13;;;;;;;3.33;2.50;;;25.00;64.00;;;;;;4461256;32;20074;-71
2022/08/24 00:27:40;;;;;;;3.75;2.58;;;25.00;64.10;;;;;;4461472;32;20058;-70
2022/08/24 00:30:09;;;;;;;2.70;2.45;;;25.00;64.00;;;;;;4461698;32;20096;-71
2022/08/24 00:32:36;;;;;;;3.55;2.50;;;25.00;64.00;;;;;;4461725;32;20082;-70
2022/08/24 00:35:06;;;;;;;3.35;2.33;;;25.00;64.10;;;;;;4461220;32;20167;-70
2022/08/24 00:37:33;;;;;;;2.17;1.83;;;25.00;64.00;;;;;;4461444;32;20104;-71
2022/08/24 00:39:58;;;;;;;4.85;2.40;;;24.90;64.00;;;;;;4461217;32;20092;-71
2022/08/24 00:42:25;;;;;;;3.03;2.28;;;25.00;64.00;;;;;;4461149;32;20502;-71
2022/08/24 00:44:51;;;;;;;3.00;2.17;;;25.00;64.10;;;;;;4461645;32;20089;-71
2022/08/24 00:47:26;;;;;;;2.70;2.10;;;25.00;64.10;;;;;;4461573;32;20113;-70
2022/08/24 00:50:06;;;;;;;2.72;2.15;;;25.00;64.00;;;;;;4461444;32;20066;-70
2022/08/24 00:52:34;;;;;;;3.10;2.30;;;24.90;64.00;;;;;;4461313;32;20227;-71
2022/08/24 00:55:07;;;;;;;3.13;2.30;;;24.90;64.00;;;;;;4461266;32;20600;-70
2022/08/24 00:57:38;;;;;;;2.90;2.20;;;24.90;64.00;;;;;;4461499;32;20082;-71
2022/08/24 01:00:13;;;;;;;2.75;2.00;;;24.90;64.00;;;;;;4461528;32;20062;-71
2022/08/24 01:02:43;;;;;;;2.85;1.92;;;24.90;64.00;;;;;;4461469;32;20081;-71
2022/08/24 01:05:11;;;;;;;3.40;2.10;;;24.90;64.00;;;;;;4461639;32;20077;-70
2022/08/24 01:07:38;;;;;;;2.67;2.15;;;24.90;64.00;;;;;;4461184;32;20098;-71
2022/08/24 01:10:13;;;;;;;3.00;2.30;;;24.90;64.00;;;;;;4460707;32;20092;-71
2022/08/24 01:12:44;;;;;;;2.65;2.20;;;24.90;63.90;;;;;;4447046;32;20376;-71
2022/08/24 01:15:11;;;;;;;2.92;2.50;;;24.90;64.00;;;;;;4461369;32;20128;-71
2022/08/24 01:20:25;;;;;;;4.30;2.30;;;24.90;64.00;;;;;;4461273;32;20497;-70
2022/08/24 01:23:09;;;;;;;2.60;2.20;;;24.90;64.00;;;;;;4461130;32;20073;-70
2022/08/24 01:25:37;;;;;;;2.33;2.13;;;24.90;64.00;;;;;;4461149;32;20148;-71
2022/08/24 01:28:09;;;;;;;2.65;1.92;;;24.90;64.00;;;;;;4460767;32;20133;-70
2022/08/24 01:30:34;;;;;;;3.65;2.17;;;24.90;64.00;;;;;;4460827;32;20073;-70
2022/08/24 01:33:04;;;;;;;1.95;1.83;;;24.90;64.90;;;;;;4460657;32;20076;-70
2022/08/24 01:35:31;;;;;;;2.45;2.00;;;24.90;64.00;;;;;;4460985;32;20086;-72
2022/08/24 01:38:01;;;;;;;2.50;2.08;;;24.90;64.00;;;;;;4460215;32;20070;-71
2022/08/24 01:40:34;;;;;;;2.20;1.98;;;24.90;64.80;;;;;;4460762;32;20430;-71
2022/08/24 01:43:02;;;;;;;2.47;2.28;;;24.90;64.00;;;;;;4460770;32;20084;-71
2022/08/24 01:45:28;;;;;;;3.17;2.42;;;24.80;64.00;;;;;;4460671;32;20097;-70
2022/08/24 01:47:53;;;;;;;4.40;2.25;;;24.90;63.90;;;;;;4460617;32;20101;-71
2022/08/24 01:50:20;;;;;;;2.20;2.00;;;24.90;63.90;;;;;;4460341;32;20084;-71
2022/08/24 01:52:46;;;;;;;2.08;1.88;;;24.90;64.00;;;;;;4460247;32;20163;-71
2022/08/24 01:55:15;;;;;;;2.08;1.88;;;24.80;63.90;;;;;;4460818;32;20066;-71
2022/08/24 01:57:42;;;;;;;2.72;2.20;;;24.80;64.00;;;;;;4460503;32;20510;-71
2022/08/24 02:00:15;;;;;;;2.00;1.80;;;24.80;64.00;;;;;;4460539;32;20098;-70
2022/08/24 02:02:43;;;;;;;2.22;2.10;;;24.80;64.00;;;;;;4460413;32;20066;-71
2022/08/24 02:05:14;;;;;;;2.50;2.28;;;24.80;63.90;;;;;;4460280;32;20070;-70
2022/08/24 02:07:40;;;;;;;2.50;2.30;;;24.80;64.00;;;;;;4461047;32;20392;-71
2022/08/24 02:10:08;;;;;;;2.85;2.03;;;24.80;64.00;;;;;;4460078;32;20074;-70
2022/08/24 02:12:37;;;;;;;2.22;1.90;;;24.80;64.00;;;;;;4460593;32;20078;-70
2022/08/24 02:15:06;;;;;;;3.78;2.20;;;24.80;64.00;;;;;;4460416;32;20109;-70
2022/08/24 02:17:33;;;;;;;2.53;1.90;;;24.80;63.90;;;;;;4460570;32;20078;-70
2022/08/24 02:20:00;;;;;;;2.83;2.10;;;24.80;64.00;;;;;;4460415;32;20653;-71
2022/08/24 02:22:26;;;;;;;2.20;1.80;;;24.80;63.90;;;;;;4460631;32;20074;-71
2022/08/24 02:24:52;;;;;;;1.92;1.83;;;24.80;63.90;;;;;;4460424;32;20085;-71
2022/08/24 02:27:19;;;;;;;2.50;1.92;;;24.80;63.90;;;;;;4460019;32;20096;-71
2022/08/24 02:29:45;;;;;;;3.22;2.22;;;24.80;64.00;;;;;;4460393;32;20636;-70
2022/08/24 02:32:11;;;;;;;2.20;1.98;;;24.80;63.90;;;;;;4460343;32;20140;-71
2022/08/24 02:34:37;;;;;;;1.90;1.60;;;24.80;63.90;;;;;;4460024;32;20520;-70
2022/08/24 02:37:04;;;;;;;2.05;1.85;;;24.80;63.90;;;;;;4460194;32;20129;-70
2022/08/24 02:39:30;;;;;;;1.63;1.52;;;24.80;63.90;;;;;;4459939;32;20066;-71
2022/08/24 02:41:56;;;;;;;2.15;1.90;;;24.80;63.90;;;;;;4460332;32;20147;-71
2022/08/24 02:44:21;;;;;;;2.35;2.03;;;24.80;63.90;;;;;;4460482;32;20482;-71
2022/08/24 02:46:47;;;;;;;2.85;1.90;;;24.80;63.90;;;;;;4460189;32;20208;-70
2022/08/24 02:49:13;;;;;;;2.42;1.70;;;24.80;63.90;;;;;;4460174;32;20470;-71
2022/08/24 02:51:43;;;;;;;1.80;1.70;;;24.70;63.80;;;;;;4460100;32;20092;-71
2022/08/24 02:54:09;;;;;;;1.67;1.58;;;24.70;63.80;;;;;;4460197;32;20093;-70
2022/08/24 02:56:35;;;;;;;2.22;1.75;;;24.70;63.80;;;;;;4460126;32;20077;-70
2022/08/24 02:59:01;;;;;;;2.00;1.80;;;24.70;63.80;;;;;;4460893;32;20510;-70
2022/08/24 03:01:28;;;;;;;2.05;1.80;;;24.70;63.80;;;;;;4462893;32;20150;-70
2022/08/24 03:03:55;;;;;;;1.90;1.73;;;24.70;63.80;;;;;;4462906;32;20161;-71
2022/08/24 03:06:21;;;;;;;1.95;1.73;;;24.70;63.80;;;;;;4463126;32;20082;-72
2022/08/24 03:08:47;;;;;;;2.45;1.80;;;24.70;63.80;;;;;;4462472;32;20084;-71
2022/08/24 03:11:13;;;;;;;1.70;1.60;;;24.70;63.80;;;;;;4462792;32;20078;-71
2022/08/24 03:13:39;;;;;;;2.33;1.85;;;24.70;63.80;;;;;;4462721;32;20489;-70
2022/08/24 03:16:06;;;;;;;2.10;1.83;;;24.70;63.80;;;;;;4448983;32;20077;-71
2022/08/24 03:18:32;;;;;;;2.03;1.67;;;24.70;63.80;;;;;;4462412;32;20546;-70
2022/08/24 03:21:01;;;;;;;2.42;1.65;;;24.70;63.80;;;;;;4462400;32;20097;-70
2022/08/24 03:23:27;;;;;;;1.67;1.58;;;24.70;63.80;;;;;;4462899;32;20092;-70
2022/08/24 03:25:54;;;;;;;2.03;1.90;;;24.70;63.80;;;;;;4462534;32;20125;-70
2022/08/24 03:28:22;;;;;;;2.50;1.60;;;24.70;63.80;;;;;;4462552;32;20093;-71
2022/08/24 03:30:49;;;;;;;2.15;1.60;;;24.70;63.80;;;;;;4462506;32;20085;-70
2022/08/24 03:33:15;;;;;;;1.80;1.70;;;24.70;63.80;;;;;;4462395;32;20435;-70
2022/08/24 03:35:41;;;;;;;1.77;1.67;;;24.70;63.80;;;;;;4462444;32;20590;-70
2022/08/24 03:38:08;;;;;;;2.67;1.92;;;24.70;63.80;;;;;;4448150;32;20077;-70
2022/08/24 03:40:34;;;;;;;2.28;1.90;;;24.70;63.80;;;;;;4448556;32;20168;-70
2022/08/24 03:43:01;;;;;;;2.17;1.90;;;24.70;63.80;;;;;;4462384;32;20199;-71
2022/08/24 03:45:27;;;;;;;1.83;1.50;;;24.70;63.80;;;;;;4462293;32;20098;-70
2022/08/24 03:47:54;;;;;;;2.10;2.00;;;24.70;64.70;;;;;;4462241;32;20101;-70
2022/08/24 03:50:21;;;;;;;2.47;1.83;;;24.70;63.80;;;;;;4462232;32;20167;-70
2022/08/24 03:52:49;;;;;;;1.80;1.70;;;24.70;63.80;;;;;;4448627;32;20085;-70
2022/08/24 03:55:15;;;;;;;2.03;1.70;;;24.60;63.80;;;;;;4462222;32;20074;-70
2022/08/24 03:57:41;;;;;;;1.58;1.33;;;24.70;63.80;;;;;;4462137;32;20073;-71
2022/08/24 04:00:10;;;;;;;2.03;1.40;;;24.70;63.80;;;;;;4462065;32;20590;-71
2022/08/24 04:02:37;;;;;;;2.00;1.73;;;24.70;63.80;;;;;;4462091;32;20085;-72
2022/08/24 04:05:06;;;;;;;1.52;1.35;;;24.70;63.80;;;;;;4461752;32;20074;-70
2022/08/24 04:07:32;;;;;;;2.03;1.65;;;24.60;63.80;;;;;;4462026;32;20074;-70
2022/08/24 04:09:58;;;;;;;1.65;1.55;;;24.60;63.70;;;;;;4447808;32;20062;-71
2022/08/24 04:12:23;;;;;;;1.58;1.40;;;24.60;63.80;;;;;;4462087;32;20587;-71
2022/08/24 04:14:54;;;;;;;2.05;1.55;;;24.60;63.80;;;;;;4461573;32;20082;-71
2022/08/24 04:17:20;;;;;;;2.58;1.58;;;24.60;63.80;;;;;;4461827;32;20621;-71
2022/08/24 04:19:58;;;;;;;1.60;1.50;;;24.60;63.80;;;;;;4461820;32;20227;-70
2022/08/24 04:22:26;;;;;;;1.38;1.27;;;24.60;63.70;;;;;;4461848;32;20094;-70
2022/08/24 04:24:52;;;;;;;1.83;1.40;;;24.60;63.80;;;;;;4461782;32;20211;-71
2022/08/24 04:27:18;;;;;;;1.60;1.50;;;24.60;63.80;;;;;;4461940;32;20072;-71
2022/08/24 04:29:45;;;;;;;1.75;1.40;;;24.60;63.80;;;;;;4461851;32;20128;-70
2022/08/24 04:32:12;;;;;;;1.52;1.40;;;24.60;63.80;;;;;;4461652;32;20158;-71
2022/08/24 04:34:38;;;;;;;1.65;1.55;;;24.60;63.80;;;;;;4461614;32;20070;-70
2022/08/24 04:37:04;;;;;;;1.90;1.55;;;24.60;63.80;;;;;;4461548;32;20100;-70
2022/08/24 04:39:32;;;;;;;1.70;1.60;;;24.60;63.80;;;;;;4460856;32;20089;-71
2022/08/24 04:41:58;;;;;;;1.45;1.23;;;24.60;63.80;;;;;;4461308;32;20074;-70
2022/08/24 04:44:25;;;;;;;1.48;1.38;;;24.50;63.70;;;;;;4447278;32;20130;-71
2022/08/24 04:46:50;;;;;;;1.52;1.42;;;24.60;63.80;;;;;;4461349;32;20096;-70
2022/08/24 04:49:16;;;;;;;1.45;1.35;;;24.60;63.70;;;;;;4461684;32;20078;-70
2022/08/24 04:51:42;;;;;;;2.65;1.40;;;24.60;63.80;;;;;;4460973;32;20089;-70
2022/08/24 04:54:08;;;;;;;1.88;1.50;;;24.60;63.80;;;;;;4461062;32;20085;-71
2022/08/24 04:56:35;;;;;;;1.80;1.33;;;24.60;63.80;;;;;;4461581;32;20101;-70
2022/08/24 04:59:01;;;;;;;1.33;1.23;;;24.50;63.80;;;;;;4461295;32;20089;-70
2022/08/24 05:01:31;;;;;;;1.70;1.50;;;24.50;63.70;;;;;;4460907;32;20077;-71
2022/08/24 05:03:57;;;;;;;1.27;1.17;;;24.50;63.70;;;;;;4461549;32;20061;-70
2022/08/24 05:06:27;;;;;;;1.48;1.38;;;24.50;63.80;;;;;;4461121;32;20155;-71
2022/08/24 05:08:54;;;;;;;1.60;1.40;;;24.50;63.70;;;;;;4461285;32;20081;-70
2022/08/24 05:11:21;;;;;;;1.60;1.50;;;24.50;63.70;;;;;;4461141;32;20086;-70
2022/08/24 05:13:53;;;;;;;1.30;1.20;;;24.50;63.80;;;;;;4461148;32;20170;-70
2022/08/24 05:16:20;;;;;;;1.55;1.45;;;24.50;63.70;;;;;;4447060;32;20252;-70
2022/08/24 05:18:47;;;;;;;2.10;1.58;;;24.50;63.70;;;;;;4461137;32;20073;-70
2022/08/24 05:21:17;;;;;;;2.10;1.40;;;24.50;63.70;;;;;;4460873;32;20384;-70
2022/08/24 05:23:43;;;;;;;1.58;1.40;;;24.50;63.80;;;;;;4460947;32;20117;-70
2022/08/24 05:26:22;;;;;;;1.42;1.33;;;24.50;63.70;;;;;;4461141;32;20078;-71
2022/08/24 05:28:49;;;;;;;1.83;1.40;;;24.50;63.70;;;;;;4460858;32;20208;-70
2022/08/24 05:31:21;;;;;;;1.33;1.23;;;24.50;63.70;;;;;;4461048;32;20171;-70
2022/08/24 05:33:48;;;;;;;1.50;1.40;;;24.50;63.70;;;;;;4460838;32;20231;-71
2022/08/24 05:36:26;;;;;;;1.80;1.40;;;24.50;63.70;;;;;;4460493;32;20109;-70
2022/08/24 05:38:55;;;;;;;1.23;1.13;;;24.50;63.70;;;;;;4460281;32;20092;-71
2022/08/24 05:41:22;;;;;;;1.30;1.20;;;24.50;63.70;;;;;;4460721;32;20407;-71
2022/08/24 05:43:49;;;;;;;2.47;1.30;;;24.50;63.70;;;;;;4460711;32;20093;-71
2022/08/24 05:46:15;;;;;;;1.30;1.20;;;24.50;63.80;;;;;;4460648;32;20140;-70
2022/08/24 05:48:42;;;;;;;1.75;1.65;;;24.50;63.70;;;;;;4446723;32;20212;-71
2022/08/24 05:51:10;;;;;;;1.60;1.50;;;24.40;63.70;;;;;;4460578;32;20074;-70
2022/08/24 05:53:37;;;;;;;1.40;1.30;;;24.50;63.80;;;;;;4460831;32;20073;-70
2022/08/24 05:56:08;;;;;;;1.90;1.48;;;24.50;63.70;;;;;;4460286;32;20077;-70
2022/08/24 05:58:36;;;;;;;2.10;1.40;;;24.50;63.70;;;;;;4460639;32;20114;-70
2022/08/24 06:01:06;;;;;;;2.88;1.38;;;24.50;63.70;;;;;;4446510;32;20083;-71
2022/08/24 06:03:32;;;;;;;2.08;1.45;;;24.50;63.70;;;;;;4446556;32;20084;-70
2022/08/24 06:05:57;;;;;;;1.55;1.30;;;24.50;63.70;;;;;;4460524;32;20522;-70
2022/08/24 06:08:23;;;;;;;1.45;1.35;;;24.50;63.70;;;;;;4460121;32;20484;-71
2022/08/24 06:10:49;;;;;;;2.17;1.55;;;24.50;63.80;;;;;;4460430;32;20085;-70
2022/08/24 06:13:15;;;;;;;1.40;1.30;;;24.50;63.70;;;;;;4460387;32;20101;-71
2022/08/24 06:15:42;;;;;;;1.48;1.33;;;24.50;63.70;;;;;;4460465;32;20589;-70
2022/08/24 06:18:08;;;;;;;1.40;1.30;;;24.50;63.70;;;;;;4460438;32;20516;-70
2022/08/24 06:20:39;;;;;;;1.40;1.30;;;24.50;63.70;;;;;;4460382;32;20112;-70
2022/08/24 06:23:06;;;;;;;1.30;1.20;;;24.50;63.70;;;;;;4460246;32;20070;-70
2022/08/24 06:28:16;;;;;;;1.17;1.08;;;24.50;63.60;;;;;;4460751;32;20077;-71
2022/08/24 06:30:42;;;;;;;1.50;1.20;;;24.50;63.60;;;;;;4460056;32;20519;-71
2022/08/24 06:33:09;;;;;;;1.30;1.20;;;24.50;63.60;;;;;;4460342;32;20077;-71
2022/08/24 06:35:35;;;;;;;1.30;1.20;;;24.60;63.60;;;;;;4462740;32;20248;-70
2022/08/24 06:38:01;;;;;;;2.47;2.05;;;24.50;63.60;;;;;;4463622;32;20125;-72
2022/08/24 06:40:27;;;;;;;6.95;4.47;;;24.60;63.80;;;;;;4462975;32;20236;-73
2022/08/24 06:42:53;;;;;;;10.85;6.38;;;24.60;64.30;;;;;;4463198;32;20203;-72
2022/08/24 06:45:20;;;;;;;10.52;6.93;;;24.60;64.10;;;;;;4463166;32;20163;-72
2022/08/24 06:47:47;;;;;;;11.35;6.55;;;24.70;64.30;;;;;;4463379;32;20089;-72
2022/08/24 06:50:12;;;;;;;14.90;7.82;;;24.70;64.50;;;;;;4463334;32;20613;-72
2022/08/24 06:52:39;;;;;;;11.27;9.13;;;24.70;64.70;;;;;;4462887;32;20078;-72
2022/08/24 06:55:06;;;;;;;11.55;8.20;;;24.70;65.00;;;;;;4462741;32;20109;-73
2022/08/24 06:57:31;;;;;;;11.88;7.97;;;24.70;64.90;;;;;;4462695;32;20086;-72
2022/08/24 06:59:57;;;;;;;10.75;6.85;;;24.70;65.10;;;;;;4448698;32;20129;-73
2022/08/24 07:02:23;;;;;;;11.30;7.85;;;24.70;65.00;;;;;;4462897;32;20113;-72
2022/08/24 07:04:49;;;;;;;10.90;9.77;;;24.70;65.00;;;;;;4463125;32;20487;-73
2022/08/24 07:07:16;;;;;;;11.75;7.57;;;24.80;65.10;;;;;;4463044;32;20491;-72
2022/08/24 07:09:42;;;;;;;9.75;8.20;;;24.70;65.20;;;;;;4448785;32;20074;-74
2022/08/24 07:12:08;;;;;;;10.95;8.98;;;24.80;65.30;;;;;;4448881;32;20093;-74
2022/08/24 07:14:33;;;;;;;9.98;8.60;;;24.80;65.20;;;;;;4462977;32;20470;-74
2022/08/24 07:16:59;;;;;;;9.07;7.63;;;24.80;65.30;;;;;;4448446;32;20204;-74
2022/08/24 07:19:25;;;;;;;9.88;7.72;;;24.80;65.20;;;;;;4462760;32;20510;-74
2022/08/24 07:21:56;;;;;;;12.88;7.53;;;24.80;65.20;;;;;;4462878;32;20513;-73
2022/08/24 07:24:22;;;;;;;10.02;8.05;;;24.80;65.20;;;;;;4462971;32;20074;-73
2022/08/24 07:26:48;;;;;;;11.50;8.38;;;24.90;65.20;;;;;;4448420;32;20099;-74
2022/08/24 07:29:14;;;;;;;11.10;7.93;;;24.90;65.20;;;;;;4462529;32;20183;-73
2022/08/24 07:31:42;;;;;;;8.38;7.47;;;24.90;65.20;;;;;;4448625;32;20093;-70
2022/08/24 07:34:10;;;;;;;10.55;6.32;;;24.90;65.20;;;;;;4462400;32;20511;-71
2022/08/24 07:36:39;;;;;;;8.82;6.65;;;25.00;65.20;;;;;;4462416;32;20069;-71
2022/08/24 07:39:06;;;;;;;10.93;6.47;;;25.00;65.30;;;;;;4462281;32;20104;-71
2022/08/24 07:41:37;;;;;;;9.52;5.90;;;25.00;65.30;;;;;;4462611;32;20093;-71
2022/08/24 07:44:03;;;;;;;7.93;6.00;;;25.00;65.30;;;;;;4462382;32;20416;-71
2022/08/24 07:46:29;;;;;;;9.27;5.05;;;25.00;65.20;;;;;;4461682;32;20523;-71
2022/08/24 07:48:55;;;;;;;10.57;5.20;;;25.00;65.30;;;;;;4462201;32;20074;-71
2022/08/24 07:51:21;;;;;;;8.23;5.07;;;25.10;65.40;;;;;;4448131;32;20070;-72
2022/08/24 07:53:46;;;;;;;9.45;4.80;;;25.10;65.20;;;;;;4462305;32;20076;-72
2022/08/24 07:56:12;;;;;;;6.03;4.18;;;25.10;65.10;;;;;;4448054;32;20180;-72
2022/08/24 07:58:38;;;;;;;6.40;3.50;;;25.20;65.10;;;;;;4462039;32;20247;-71
2022/08/24 08:01:05;;;;;;;4.70;3.30;;;25.20;65.10;;;;;;4462001;32;20109;-72
2022/08/24 08:03:32;;;;;;;3.47;3.13;;;25.20;66.00;;;;;;4461977;32;20164;-70
2022/08/24 08:06:03;;;;;;;7.57;3.35;;;25.20;65.20;;;;;;4461677;32;20452;-71
2022/08/24 08:08:29;;;;;;;6.20;2.88;;;25.20;65.20;;;;;;4462078;32;20074;-72
2022/08/24 08:10:56;;;;;;;6.35;2.67;;;25.20;65.10;;;;;;4461605;32;20187;-73
2022/08/24 08:13:22;;;;;;;4.10;2.58;;;25.20;65.10;;;;;;4461706;32;20081;-72
2022/08/24 08:15:48;;;;;;;5.35;2.90;;;25.30;65.20;;;;;;4461782;32;20097;-71
2022/08/24 08:18:14;;;;;;;4.95;2.80;;;25.30;65.30;;;;;;4461832;32;20490;-73
2022/08/24 08:20:41;;;;;;;4.03;2.42;;;25.30;65.20;;;;;;4461800;32;20207;-71
2022/08/24 08:25:56;;;;;;;6.63;2.30;;;25.30;65.40;;;;;;4461747;32;20076;-72
2022/08/24 08:28:24;;;;;;;6.05;2.30;;;25.30;65.40;;;;;;4462422;32;20079;-72
2022/08/24 08:30:51;;;;;;;4.45;2.22;;;25.30;65.40;;;;;;4461572;32;20096;-72
2022/08/24 08:33:17;;;;;;;4.30;2.28;;;25.40;65.30;;;;;;4461465;32;20065;-71
2022/08/24 08:35:44;;;;;;;5.93;2.60;;;25.40;65.20;;;;;;4461539;32;20144;-72
2022/08/24 08:38:10;;;;;;;5.60;2.30;;;25.50;65.10;;;;;;4461480;32;20278;-72
2022/08/24 08:40:55;;;;;;;6.90;2.10;;;25.50;64.90;;;;;;4461231;32;20085;-72
2022/08/24 08:43:43;;;;;;;5.80;2.00;;;25.60;64.80;;;;;;4447333;32;20517;-72
2022/08/24 08:46:08;;;;;;;4.28;2.08;;;25.60;64.70;;;;;;4461381;32;20511;-71
2022/08/24 08:48:49;;;;;;;3.58;2.30;;;25.70;64.50;;;;;;4461329;32;20116;-72
2022/08/24 08:51:42;;;;;;;4.80;1.98;;;25.70;64.30;;;;;;4461699;32;20696;-72
2022/08/24 08:54:41;;;;;;;2.53;1.80;;;25.80;64.20;;;;;;4447235;32;20541;-73
2022/08/24 08:57:17;;;;;;;6.85;2.10;;;25.80;64.10;;;;;;4460422;32;20235;-71
2022/08/24 09:00:03;;;;;;;3.45;2.17;;;25.80;64.00;;;;;;4461299;32;20154;-72
2022/08/24 09:03:22;;;;;;;3.42;1.73;;;25.80;63.90;;;;;;4461443;32;20092;-72
2022/08/24 09:05:47;;;;;;;2.20;1.70;;;25.90;64.00;;;;;;4426067;32;20166;-72
2022/08/24 09:08:25;;;;;;;2.47;1.95;;;25.90;63.80;;;;;;4461120;32;20081;-72
2022/08/24 09:11:22;;;;;;;3.42;2.35;;;25.90;63.90;;;;;;4460810;32;20093;-71
2022/08/24 09:14:20;;;;;;;7.22;2.10;;;26.00;63.90;;;;;;4461024;32;20620;-72
2022/08/24 09:17:06;;;;;;;4.95;3.00;;;26.00;63.80;;;;;;4426382;32;20069;-72
2022/08/24 09:20:06;;;;;;;5.90;3.10;;;26.10;63.40;;;;;;4461466;32;20096;-72
2022/08/24 09:22:38;;;;;;;3.65;2.47;;;26.10;62.60;;;;;;4460683;32;20101;-72
2022/08/24 09:25:10;;;;;;;4.65;2.17;;;26.10;62.50;;;;;;4461164;32;20553;-72
2022/08/24 09:28:04;;;;;;;4.68;2.30;;;26.20;62.50;;;;;;4460944;32;20124;-72
2022/08/24 09:30:56;;;;;;;2.80;1.90;;;26.20;62.40;;;;;;4460891;32;20212;-72
2022/08/24 09:33:35;;;;;;;4.68;2.45;;;26.20;62.30;;;;;;4460864;32;20215;-72
2022/08/24 09:36:07;;;;;;;6.18;2.00;;;26.20;62.30;;;;;;4460501;32;20081;-72
2022/08/24 09:39:06;;;;;;;4.97;2.10;;;26.20;62.20;;;;;;4460235;32;20070;-71
2022/08/24 09:41:40;;;;;;;5.13;2.10;;;26.30;62.10;;;;;;4460849;32;20073;-72
2022/08/24 09:44:15;;;;;;;3.28;2.03;;;26.30;62.10;;;;;;4460297;32;20124;-72
2022/08/24 09:47:05;;;;;;;5.28;1.95;;;26.40;62.00;;;;;;4460508;32;20081;-72
2022/08/24 09:50:08;;;;;;;4.97;2.05;;;26.40;61.90;;;;;;4460626;32;20223;-73
2022/08/24 09:52:53;;;;;;;7.82;2.55;;;26.40;61.70;;;;;;4460484;32;20199;-71
2022/08/24 09:55:56;;;;;;;4.45;2.03;;;26.50;61.80;;;;;;4460455;32;20124;-72
2022/08/24 09:58:41;;;;;;;7.03;2.75;;;26.50;61.70;;;;;;4460268;32;20163;-72
2022/08/24 10:01:41;;;;;;;5.60;2.30;;;26.50;61.60;;;;;;4460486;32;20167;-67
2022/08/24 10:04:36;;;;;;;6.28;2.22;;;26.50;61.30;;;;;;4460789;32;20522;-72
2022/08/24 10:07:27;;;;;;;3.03;1.95;;;26.60;61.10;;;;;;4460850;32;20500;-72
2022/08/24 10:10:20;;;;;;;5.50;2.13;;;26.60;61.10;;;;;;4449498;32;20074;-73
2022/08/24 10:13:09;;;;;;;3.75;2.10;;;26.60;60.80;;;;;;4463708;32;20058;-72
2022/08/24 10:15:54;;;;;;;4.20;2.05;;;26.60;60.80;;;;;;4464005;32;20118;-73
2022/08/24 10:19:05;;;;;;;5.95;2.05;;;26.70;61.00;;;;;;4463704;32;20082;-72
2022/08/24 10:22:17;;;;;;;4.90;2.05;;;26.70;60.80;;;;;;4463852;32;20065;-72
2022/08/24 10:25:05;;;;;;;5.13;1.73;;;26.70;60.70;;;;;;4463832;32;20074;-73
2022/08/24 10:28:02;;;;;;;4.78;1.77;;;26.80;60.70;;;;;;4463255;32;20087;-73
2022/08/24 10:30:45;;;;;;;4.05;2.13;;;26.80;60.50;;;;;;4463403;32;20081;-73
2022/08/24 10:33:24;;;;;;;3.83;1.90;;;26.80;60.40;;;;;;4463448;32;20088;-74
2022/08/24 10:36:14;;;;;;;4.40;2.00;;;26.90;60.10;;;;;;4463042;32;20078;-73
2022/08/24 10:41:58;;;;;;;3.65;1.92;;;26.90;59.90;;;;;;4463514;32;20073;-73
2022/08/24 10:44:41;;;;;;;3.35;1.75;;;27.00;59.70;;;;;;4463244;32;20530;-74
2022/08/24 10:47:34;;;;;;;5.72;1.90;;;27.00;59.50;;;;;;4463436;32;20215;-74
2022/08/24 10:50:18;;;;;;;3.47;1.80;;;27.00;59.60;;;;;;4462928;32;20073;-73
2022/08/24 10:52:59;;;;;;;3.38;1.70;;;27.00;59.50;;;;;;4462962;32;20074;-74
2022/08/24 10:55:29;;;;;;;3.17;2.03;;;27.00;59.50;;;;;;4449227;32;20114;-74
2022/08/24 10:58:06;;;;;;;6.03;2.17;;;27.00;59.60;;;;;;4462716;32;20113;-74
2022/08/24 11:00:33;;;;;;;2.58;1.63;;;27.00;59.70;;;;;;4463113;32;20070;-73
2022/08/24 11:03:12;;;;;;;4.53;2.20;;;27.00;59.90;;;;;;4462896;32;20113;-73
2022/08/24 11:05:48;;;;;;;5.40;2.35;;;27.00;60.00;;;;;;4463653;32;20089;-73
2022/08/24 11:08:25;;;;;;;5.57;3.45;;;26.90;60.20;;;;;;4462875;32;20078;-73
2022/08/24 11:11:06;;;;;;;4.40;2.90;;;26.90;60.60;;;;;;4462845;32;20074;-73
2022/08/24 11:13:33;;;;;;;5.00;2.50;;;26.90;60.90;;;;;;4448486;32;20086;-74
2022/08/24 11:16:02;;;;;;;6.90;4.95;;;26.90;61.00;;;;;;4462514;32;20073;-74
2022/08/24 11:18:48;;;;;;;5.63;4.40;;;26.80;61.30;;;;;;4448399;32;20088;-73
2022/08/24 11:21:50;;;;;;;6.00;3.55;;;26.80;61.60;;;;;;4462196;32;20094;-73
2022/08/24 11:24:25;;;;;;;6.15;4.22;;;26.80;61.80;;;;;;4452199;32;20092;-73
2022/08/24 11:26:56;;;;;;;6.90;5.40;;;26.70;61.80;;;;;;4462565;32;20092;-73
2022/08/24 11:29:46;;;;;;;8.55;5.57;;;26.70;62.00;;;;;;4462662;32;20586;-73
2022/08/24 11:32:25;;;;;;;5.47;4.90;;;26.70;62.10;;;;;;4462001;32;20182;-74
2022/08/24 11:34:51;;;;;;;9.27;5.22;;;26.70;62.30;;;;;;4462599;32;20492;-74
2022/08/24 11:37:22;;;;;;;11.80;5.60;;;26.60;62.30;;;;;;4448451;32;20066;-74
2022/08/24 11:39:49;;;;;;;7.13;6.20;;;26.60;62.40;;;;;;4461997;32;20097;-74
2022/08/24 11:42:27;;;;;;;14.60;6.68;;;26.50;62.50;;;;;;4462327;32;20240;-74
2022/08/24 11:44:57;;;;;;;9.80;5.53;;;26.50;62.70;;;;;;4462375;32;20065;-74
2022/08/24 11:47:23;;;;;;;7.07;6.13;;;26.50;63.60;;;;;;4462439;32;20086;-74
2022/08/24 11:49:58;;;;;;;6.72;5.93;;;26.40;62.80;;;;;;4462341;32;20215;-74
2022/08/24 11:52:33;;;;;;;7.68;6.47;;;26.40;62.80;;;;;;4462210;32;20482;-74
2022/08/24 11:55:23;;;;;;;8.75;5.50;;;26.40;62.80;;;;;;4462281;32;20121;-73
2022/08/24 11:58:01;;;;;;;8.50;5.40;;;26.40;62.80;;;;;;4462216;32;20077;-73
2022/08/24 12:00:45;;;;;;;11.75;8.73;;;26.30;62.70;;;;;;4462200;32;20066;-73
2022/08/24 12:03:42;;;;;;;13.48;9.25;;;26.30;62.70;;;;;;4462510;32;20406;-74
2022/08/24 12:06:29;;;;;;;11.07;7.88;;;26.30;62.80;;;;;;4462165;32;20501;-74
2022/08/24 12:09:02;;;;;;;11.88;7.97;;;26.30;62.80;;;;;;4448187;32;20196;-73
2022/08/24 12:11:52;;;;;;;9.40;8.38;;;26.30;62.80;;;;;;4461998;32;20092;-73
2022/08/24 12:14:24;;;;;;;11.15;8.20;;;26.20;62.80;;;;;;4462122;32;20182;-73
2022/08/24 12:16:57;;;;;;;8.07;7.28;;;26.20;62.80;;;;;;4462160;32;20066;-73
2022/08/24 12:19:29;;;;;;;7.15;5.88;;;26.20;62.80;;;;;;4461943;32;20078;-72
2022/08/24 12:21:59;;;;;;;6.17;4.93;;;26.20;62.90;;;;;;4462036;32;20575;-73
2022/08/24 12:24:49;;;;;;;6.25;4.43;;;26.20;62.90;;;;;;4461729;32;20216;-72
2022/08/24 12:27:31;;;;;;;5.80;4.20;;;26.20;62.90;;;;;;4461907;32;20507;-73
2022/08/24 12:30:02;;;;;;;7.95;3.30;;;26.20;62.90;;;;;;4461777;32;20074;-72
2022/08/24 12:32:40;;;;;;;7.43;3.97;;;26.30;62.90;;;;;;4461382;32;20132;-72
2022/08/24 12:35:30;;;;;;;7.95;4.18;;;26.30;62.90;;;;;;4461645;32;20422;-73
2022/08/24 12:38:08;;;;;;;5.88;3.67;;;26.30;62.80;;;;;;4461161;32;20132;-74
2022/08/24 12:40:53;;;;;;;6.07;3.30;;;26.20;62.70;;;;;;4461210;32;20097;-73
2022/08/24 12:43:26;;;;;;;6.65;2.63;;;26.30;62.90;;;;;;4461395;32;20215;-72
2022/08/24 12:45:55;;;;;;;3.15;2.10;;;26.30;62.90;;;;;;4461630;32;20219;-74
2022/08/24 12:48:53;;;;;;;3.65;2.42;;;26.30;62.80;;;;;;4461613;32;20097;-73
2022/08/24 12:51:48;;;;;;;4.32;2.20;;;26.40;62.80;;;;;;4426757;32;20090;-72
2022/08/24 12:54:44;;;;;;;5.18;2.10;;;26.40;62.80;;;;;;4461409;32;20077;-74
2022/08/24 12:57:24;;;;;;;3.42;2.08;;;26.50;62.90;;;;;;4461051;32;20074;-72
2022/08/24 13:00:16;;;;;;;3.22;1.80;;;26.50;62.70;;;;;;4461357;32;20163;-73
2022/08/24 13:02:45;;;;;;;2.97;1.92;;;26.60;62.80;;;;;;4448621;32;20078;-73
2022/08/24 13:05:15;;;;;;;2.30;1.73;;;26.50;62.60;;;;;;4461016;32;20503;-73
2022/08/24 13:07:47;;;;;;;2.85;1.55;;;26.60;62.70;;;;;;4460820;32;20633;-72
2022/08/24 13:10:36;;;;;;;3.15;1.90;;;26.60;62.70;;;;;;4460985;32;20136;-73
2022/08/24 13:13:07;;;;;;;2.95;1.90;;;26.70;62.80;;;;;;4461537;32;20422;-72
2022/08/24 13:15:36;;;;;;;2.28;1.75;;;26.70;62.70;;;;;;4460929;32;20616;-72
2022/08/24 13:18:08;;;;;;;2.80;1.75;;;26.70;62.70;;;;;;4460913;32;20396;-72
2022/08/24 13:20:33;;;;;;;3.03;1.65;;;26.70;62.70;;;;;;4460769;32;20084;-73
2022/08/24 13:23:12;;;;;;;2.25;1.70;;;26.70;62.60;;;;;;4460643;32;20082;-73